Time;durP1;ratioP1;P1;durP2;ratioP2;P2;SDS_P1;SDS_P2;PMS_P1;PMS_P2;Temp;Humidity;BMP_temperature;BMP_pressure;BME280_temperature;BME280_humidity;BME280_pressure;Samples;Min_cycle;Max_cycle;Signal;HPM_P1;HPM_P2
2021/08/26 00:06:22;;;;;;;6.75;1.38;;;;;;;17.08;100.00;100396.75;4982595;28;20057;-67
2021/08/26 00:08:50;;;;;;;1.98;1.00;;;;;;;17.08;100.00;100396.75;4988219;28;20499;-68
2021/08/26 00:11:21;;;;;;;5.43;1.52;;;;;;;17.15;100.00;100401.31;4992222;28;20037;-67
2021/08/26 00:13:47;;;;;;;4.45;1.27;;;;;;;17.06;100.00;100401.03;4991733;28;20022;-66
2021/08/26 00:16:17;;;;;;;7.25;1.30;;;;;;;16.99;100.00;100401.13;5003949;28;20219;-67
2021/08/26 00:18:42;;;;;;;3.17;1.23;;;;;;;17.03;100.00;100408.06;4991885;28;20114;-68
2021/08/26 00:21:07;;;;;;;4.60;1.02;;;;;;;17.02;100.00;100401.06;4975189;28;20062;-68
2021/08/26 00:23:33;;;;;;;2.97;1.20;;;;;;;17.09;100.00;100394.81;4991458;28;20125;-68
2021/08/26 00:25:58;;;;;;;5.15;1.17;;;;;;;17.08;100.00;100399.47;4988919;28;20034;-68
2021/08/26 00:28:24;;;;;;;6.85;1.17;;;;;;;17.11;100.00;100400.63;4989067;28;20042;-68
2021/08/26 00:30:49;;;;;;;8.27;1.88;;;;;;;17.08;100.00;100399.47;4982815;28;20034;-67
2021/08/26 00:33:16;;;;;;;6.20;1.50;;;;;;;17.01;100.00;100393.31;4991343;28;20030;-68
2021/08/26 00:35:41;;;;;;;4.57;1.48;;;;;;;16.99;100.00;100395.69;4992035;28;20502;-67
2021/08/26 00:38:07;;;;;;;4.25;1.10;;;;;;;17.01;100.00;100390.59;4991384;28;20034;-68
2021/08/26 00:40:32;;;;;;;4.55;1.20;;;;;;;17.00;100.00;100391.75;4988672;28;20042;-68
2021/08/26 00:42:59;;;;;;;7.70;1.50;;;;;;;16.98;100.00;100389.44;4980411;28;20053;-67
2021/08/26 00:45:25;;;;;;;3.67;1.10;;;;;;;17.00;100.00;100387.09;4979732;28;20044;-67
2021/08/26 00:47:51;;;;;;;4.07;1.45;;;;;;;17.03;100.00;100389.00;4981240;28;20030;-66
2021/08/26 00:50:17;;;;;;;5.88;1.10;;;;;;;17.03;100.00;100380.84;4990010;28;20033;-67
2021/08/26 00:52:46;;;;;;;7.35;1.35;;;;;;;16.98;100.00;100375.06;4988871;28;20093;-68
2021/08/26 00:55:13;;;;;;;2.42;1.00;;;;;;;17.01;100.00;100382.44;4988754;28;20030;-68
2021/08/26 00:57:39;;;;;;;7.95;1.17;;;;;;;17.03;100.00;100377.38;4985824;28;20035;-66
2021/08/26 01:00:10;;;;;;;5.40;1.15;;;;;;;16.95;100.00;100367.72;4988681;28;20058;-68
2021/08/26 01:03:03;;;;;;;5.03;1.30;;;;;;;16.94;100.00;100366.16;4987213;28;20121;-67
2021/08/26 01:06:02;;;;;;;4.45;1.10;;;;;;;16.85;100.00;100371.31;4991130;28;20048;-67
2021/08/26 01:08:50;;;;;;;6.05;1.58;;;;;;;16.86;100.00;100375.59;4991364;28;20057;-68
2021/08/26 01:11:20;;;;;;;3.50;1.30;;;;;;;16.85;100.00;100366.66;4983420;28;20053;-67
2021/08/26 01:13:46;;;;;;;7.20;1.40;;;;;;;16.87;100.00;100374.41;4989445;28;20103;-66
2021/08/26 01:16:14;;;;;;;5.30;1.30;;;;;;;16.82;100.00;100372.91;4987176;28;20109;-68
2021/08/26 01:18:42;;;;;;;6.78;1.40;;;;;;;16.82;100.00;100372.16;5005026;28;20026;-67
2021/08/26 01:21:09;;;;;;;4.63;1.25;;;;;;;16.81;100.00;100376.03;4987511;28;20038;-66
2021/08/26 01:23:36;;;;;;;3.22;1.17;;;;;;;16.85;100.00;100369.38;4989586;28;20440;-67
2021/08/26 01:26:07;;;;;;;6.78;1.33;;;;;;;16.77;100.00;100367.91;4990724;28;20026;-68
2021/08/26 01:28:38;;;;;;;6.68;1.40;;;;;;;16.61;100.00;100366.88;4990548;28;20045;-68
2021/08/26 01:31:04;;;;;;;7.72;1.25;;;;;;;16.61;100.00;100364.94;4982260;28;20089;-68
2021/08/26 01:33:30;;;;;;;7.32;1.23;;;;;;;16.63;100.00;100359.09;4990363;28;20030;-66
2021/08/26 01:35:57;;;;;;;4.45;1.15;;;;;;;16.65;100.00;100352.09;4990921;28;20024;-68
2021/08/26 01:38:23;;;;;;;7.00;1.33;;;;;;;16.61;100.00;100350.56;4990817;28;20033;-68
2021/08/26 01:40:49;;;;;;;1.77;1.50;;;;;;;16.65;100.00;100360.25;4986530;28;20438;-68
2021/08/26 01:43:16;;;;;;;3.45;0.90;;;;;;;16.57;100.00;100364.19;4990130;28;20069;-69
2021/08/26 01:45:46;;;;;;;7.55;1.60;;;;;;;16.59;100.00;100361.84;4995747;28;20053;-65
2021/08/26 01:48:14;;;;;;;7.20;1.17;;;;;;;16.57;100.00;100366.91;4992063;28;20064;-64
2021/08/26 01:50:39;;;;;;;2.00;1.00;;;;;;;16.55;100.00;100355.66;4993891;28;20533;-68
2021/08/26 01:53:05;;;;;;;6.05;1.35;;;;;;;16.45;100.00;100356.53;4993247;28;20058;-68
2021/08/26 01:55:31;;;;;;;4.18;1.85;;;;;;;16.49;100.00;100353.81;4984190;28;20045;-68
2021/08/26 01:57:58;;;;;;;3.88;1.15;;;;;;;16.46;100.00;100373.59;4990060;28;20109;-68
2021/08/26 02:00:24;;;;;;;6.00;1.27;;;;;;;16.48;100.00;100365.81;4988256;28;20030;-68
2021/08/26 02:02:49;;;;;;;9.63;1.45;;;;;;;16.38;100.00;100374.81;4987579;28;20041;-68
2021/08/26 02:05:15;;;;;;;4.22;0.95;;;;;;;16.43;100.00;100379.84;4989244;28;20030;-67
2021/08/26 02:07:48;;;;;;;4.10;1.38;;;;;;;16.47;100.00;100367.78;4990584;28;20046;-68
2021/08/26 02:10:14;;;;;;;5.07;1.17;;;;;;;16.50;100.00;100383.28;4988667;28;20038;-67
2021/08/26 02:12:40;;;;;;;5.43;1.50;;;;;;;16.48;100.00;100368.53;4988542;28;20495;-69
2021/08/26 02:15:06;;;;;;;2.70;1.23;;;;;;;16.55;100.00;100363.06;4990015;28;20045;-67
2021/08/26 02:17:32;;;;;;;2.92;1.10;;;;;;;16.56;100.00;100368.09;4988271;28;20563;-68
2021/08/26 02:19:57;;;;;;;3.08;1.23;;;;;;;16.57;100.00;100360.72;4997995;23;20126;-70
2021/08/26 02:22:22;;;;;;;5.60;1.70;;;;;;;16.60;100.00;100349.81;4989985;28;20042;-70
2021/08/26 02:24:48;;;;;;;5.28;1.60;;;;;;;16.56;100.00;100349.06;4987267;28;20044;-70
2021/08/26 02:27:13;;;;;;;7.15;1.25;;;;;;;16.54;100.00;100358.78;4992958;28;20035;-67
2021/08/26 02:29:39;;;;;;;7.47;1.23;;;;;;;16.50;100.00;100355.34;4990123;28;20091;-68
2021/08/26 02:32:05;;;;;;;6.57;1.60;;;;;;;16.47;100.00;100359.63;4989561;28;20100;-67
2021/08/26 02:34:30;;;;;;;3.20;1.33;;;;;;;16.45;100.00;100355.75;4988030;28;20046;-68
2021/08/26 02:36:56;;;;;;;9.00;1.38;;;;;;;16.42;100.00;100367.41;4990639;28;20049;-67
2021/08/26 02:39:21;;;;;;;6.78;1.38;;;;;;;16.43;100.00;100361.59;4987043;28;20490;-68
2021/08/26 02:41:46;;;;;;;6.78;1.55;;;;;;;16.40;100.00;100358.88;4987228;28;20068;-68
2021/08/26 02:44:12;;;;;;;4.25;1.40;;;;;;;16.37;100.00;100354.25;4989405;28;20033;-68
2021/08/26 02:46:37;;;;;;;3.92;1.10;;;;;;;16.32;100.00;100352.72;4994359;28;20040;-67
2021/08/26 02:49:03;;;;;;;4.40;1.33;;;;;;;16.27;100.00;100356.66;4986435;28;20034;-67
2021/08/26 02:51:28;;;;;;;8.60;1.52;;;;;;;16.28;100.00;100350.03;4988992;28;20430;-67
2021/08/26 02:53:54;;;;;;;11.57;1.55;;;;;;;16.23;100.00;100338.84;4990618;28;20030;-67
2021/08/26 02:56:19;;;;;;;2.85;1.60;;;;;;;16.23;100.00;100339.63;4992169;28;20030;-67
2021/08/26 02:58:45;;;;;;;8.20;1.70;;;;;;;16.20;100.00;100358.66;4991111;28;20054;-67
2021/08/26 03:01:10;;;;;;;3.35;1.70;;;;;;;16.15;100.00;100345.50;4993363;28;20038;-67
2021/08/26 03:03:35;;;;;;;12.23;1.95;;;;;;;16.17;100.00;100352.06;4991900;28;20078;-67
2021/08/26 03:06:01;;;;;;;6.03;1.75;;;;;;;16.14;100.00;100349.38;4993774;28;20387;-67
2021/08/26 03:08:26;;;;;;;5.22;1.20;;;;;;;16.09;100.00;100342.44;4988718;28;20062;-68
2021/08/26 03:10:52;;;;;;;5.70;1.33;;;;;;;16.06;100.00;100356.81;4984747;28;20462;-67
2021/08/26 03:13:17;;;;;;;7.65;1.55;;;;;;;16.05;100.00;100357.19;4980899;28;20039;-69
2021/08/26 03:15:43;;;;;;;10.02;1.65;;;;;;;16.08;100.00;100353.69;4987138;28;20060;-67
2021/08/26 03:18:08;;;;;;;8.82;1.23;;;;;;;16.07;100.00;100350.19;4977691;28;20162;-68
2021/08/26 03:20:34;;;;;;;4.47;1.35;;;;;;;16.12;100.00;100354.44;4987083;28;20077;-66
2021/08/26 03:22:59;;;;;;;4.38;1.13;;;;;;;16.15;100.00;100346.28;4989591;28;20042;-67
2021/08/26 03:25:28;;;;;;;4.00;1.10;;;;;;;16.14;100.00;100341.25;4983350;28;20022;-67
2021/08/26 03:27:54;;;;;;;5.15;2.25;;;;;;;16.14;100.00;100328.41;4990805;28;20065;-67
2021/08/26 03:30:19;;;;;;;5.85;1.75;;;;;;;16.20;100.00;100343.13;4992298;28;20030;-67
2021/08/26 03:32:44;;;;;;;5.97;1.52;;;;;;;16.22;100.00;100346.19;4967297;28;21056;-67
2021/08/26 03:35:10;;;;;;;4.38;1.40;;;;;;;16.17;100.00;100343.16;4991235;28;20479;-67
2021/08/26 03:37:35;;;;;;;8.30;1.92;;;;;;;16.15;100.00;100335.41;4988840;28;20030;-67
2021/08/26 03:40:01;;;;;;;10.85;1.67;;;;;;;16.17;100.00;100343.16;4978869;28;20038;-68
2021/08/26 03:42:26;;;;;;;9.88;2.42;;;;;;;16.20;100.00;100345.06;4989238;28;20049;-67
2021/08/26 03:44:52;;;;;;;6.13;1.60;;;;;;;16.22;100.00;100351.63;4990877;28;20041;-67
2021/08/26 03:47:17;;;;;;;3.92;1.35;;;;;;;16.25;100.00;100348.13;4990569;28;20083;-67
2021/08/26 03:49:43;;;;;;;5.63;1.73;;;;;;;16.25;100.00;100353.56;4989518;28;20040;-67
2021/08/26 03:52:08;;;;;;;8.32;1.60;;;;;;;16.30;100.00;100346.16;4988677;28;20035;-67
2021/08/26 03:54:35;;;;;;;4.53;1.38;;;;;;;16.28;100.00;100347.31;4987523;28;20041;-68
2021/08/26 03:57:01;;;;;;;5.13;1.75;;;;;;;16.29;100.00;100345.38;4984189;28;20104;-66
2021/08/26 03:59:26;;;;;;;6.63;1.83;;;;;;;16.26;100.00;100357.81;4982329;28;20038;-67
2021/08/26 04:01:52;;;;;;;7.40;1.42;;;;;;;16.26;100.00;100355.09;4975337;28;20041;-67
2021/08/26 04:04:17;;;;;;;5.30;1.52;;;;;;;16.24;100.00;100343.84;4979983;28;20022;-67
2021/08/26 04:06:43;;;;;;;8.30;1.60;;;;;;;16.27;100.00;100351.22;4980839;28;20121;-67
2021/08/26 04:09:08;;;;;;;6.13;1.30;;;;;;;16.23;100.00;100346.97;4975238;28;20113;-67
2021/08/26 04:11:34;;;;;;;5.45;1.67;;;;;;;16.28;100.00;100347.31;4989910;28;20030;-67
2021/08/26 04:13:59;;;;;;;11.73;1.63;;;;;;;16.23;100.00;100347.75;4986383;28;20062;-66
2021/08/26 04:16:25;;;;;;;3.72;1.58;;;;;;;16.21;100.00;100354.75;4988992;28;20125;-67
2021/08/26 04:18:50;;;;;;;6.53;1.95;;;;;;;16.19;100.00;100347.00;4985420;28;20088;-67
2021/08/26 04:21:16;;;;;;;4.38;1.30;;;;;;;16.25;100.00;100348.13;4990049;28;20045;-67
2021/08/26 04:23:42;;;;;;;6.68;1.50;;;;;;;16.32;100.00;100338.38;4985497;28;20077;-67
2021/08/26 04:26:07;;;;;;;4.95;1.65;;;;;;;16.35;100.00;100348.44;4988683;28;20034;-67
2021/08/26 04:28:33;;;;;;;11.85;1.67;;;;;;;16.23;100.00;100350.47;4990543;28;20065;-68
2021/08/26 04:30:58;;;;;;;2.80;1.60;;;;;;;16.23;100.00;100347.75;4986847;28;20042;-67
2021/08/26 04:33:24;;;;;;;2.30;1.30;;;;;;;16.22;100.00;100354.34;4980773;28;20053;-68
2021/08/26 04:35:50;;;;;;;6.47;1.45;;;;;;;16.30;100.00;100348.88;4991789;28;20038;-67
2021/08/26 04:38:15;;;;;;;7.53;1.88;;;;;;;16.28;100.00;100354.69;4990115;28;20038;-67
2021/08/26 04:40:41;;;;;;;5.15;1.58;;;;;;;16.30;100.00;100349.63;4982863;28;20046;-67
2021/08/26 04:43:06;;;;;;;6.03;1.25;;;;;;;16.33;100.00;100350.78;4987577;28;20030;-68
2021/08/26 04:45:32;;;;;;;8.30;1.30;;;;;;;16.27;100.00;100345.00;4970301;28;20030;-67
2021/08/26 04:47:57;;;;;;;9.15;1.75;;;;;;;16.26;100.00;100343.44;4988588;28;20507;-68
2021/08/26 04:50:23;;;;;;;3.78;1.30;;;;;;;16.27;100.00;100339.56;4986771;28;20058;-67
2021/08/26 04:52:48;;;;;;;7.65;1.95;;;;;;;16.26;100.00;100333.38;4983200;28;20070;-67
2021/08/26 04:55:14;;;;;;;6.10;1.27;;;;;;;16.27;100.00;100329.50;4986993;28;20026;-67
2021/08/26 04:57:40;;;;;;;12.15;2.20;;;;;;;16.33;100.00;100339.91;4999097;28;20034;-70
2021/08/26 05:00:06;;;;;;;6.80;1.10;;;;;;;16.26;100.00;100351.59;4980622;28;20421;-67
2021/08/26 05:02:31;;;;;;;3.88;1.00;;;;;;;16.30;100.00;100333.31;4976964;28;20038;-68
2021/08/26 05:04:58;;;;;;;7.40;1.67;;;;;;;16.28;100.00;100347.31;4983094;28;20050;-67
2021/08/26 05:07:23;;;;;;;3.47;1.60;;;;;;;16.30;100.00;100355.06;4979389;28;20439;-67
2021/08/26 05:09:48;;;;;;;4.95;1.02;;;;;;;16.26;100.00;100338.78;4986667;28;20049;-70
2021/08/26 05:12:14;;;;;;;6.32;1.10;;;;;;;16.35;100.00;100335.63;4978879;28;20414;-68
2021/08/26 05:14:40;;;;;;;4.22;1.20;;;;;;;16.38;100.00;100350.34;4978988;28;20035;-68
2021/08/26 05:17:06;;;;;;;7.57;1.25;;;;;;;16.40;100.00;100342.56;4983082;28;20030;-67
2021/08/26 05:19:32;;;;;;;9.50;1.75;;;;;;;16.41;100.00;100349.56;4983158;28;20407;-67
2021/08/26 05:21:58;;;;;;;7.53;1.58;;;;;;;16.39;100.00;100341.81;4985156;28;20403;-68
2021/08/26 05:24:23;;;;;;;8.30;1.35;;;;;;;16.43;100.00;100339.06;4987702;28;20039;-67
2021/08/26 05:26:49;;;;;;;3.97;1.73;;;;;;;16.41;100.00;100344.13;4982119;28;20077;-69
2021/08/26 05:29:15;;;;;;;5.10;1.05;;;;;;;16.39;100.00;100352.69;4985751;28;20113;-67
2021/08/26 05:31:40;;;;;;;6.55;1.27;;;;;;;16.41;100.00;100360.44;4985459;28;20041;-67
2021/08/26 05:34:06;;;;;;;3.00;1.20;;;;;;;16.44;100.00;100349.53;4986786;28;20037;-67
2021/08/26 05:36:31;;;;;;;6.60;1.60;;;;;;;16.49;100.00;100353.81;4990401;28;20049;-68
2021/08/26 05:38:57;;;;;;;5.85;1.15;;;;;;;16.48;100.00;100354.94;4986136;28;20618;-67
2021/08/26 05:41:22;;;;;;;6.78;1.63;;;;;;;16.52;100.00;100356.47;4984743;28;20038;-67
2021/08/26 05:43:48;;;;;;;3.25;1.38;;;;;;;16.57;100.00;100353.31;4982656;28;20081;-68
2021/08/26 05:46:13;;;;;;;3.22;1.38;;;;;;;16.60;100.00;100357.19;4989163;28;20092;-67
2021/08/26 05:48:39;;;;;;;6.07;1.20;;;;;;;16.62;100.00;100357.56;4981498;28;20051;-67
2021/08/26 05:51:04;;;;;;;3.70;1.05;;;;;;;16.63;100.00;100351.72;4986904;28;20084;-67
2021/08/26 05:53:30;;;;;;;6.88;1.88;;;;;;;16.63;100.00;100350.94;4987984;28;20493;-67
2021/08/26 05:55:56;;;;;;;5.75;1.60;;;;;;;16.68;100.00;100356.72;4986080;28;20037;-68
2021/08/26 05:58:21;;;;;;;7.65;1.30;;;;;;;16.77;100.00;100361.69;4988518;28;20041;-68
2021/08/26 06:00:48;;;;;;;11.88;1.52;;;;;;;16.77;100.00;100348.09;4983511;28;20030;-68
2021/08/26 06:03:15;;;;;;;6.75;1.30;;;;;;;16.76;100.00;100352.00;4987454;28;20124;-68
2021/08/26 06:05:41;;;;;;;3.83;1.30;;;;;;;16.82;100.00;100375.63;4986418;28;20062;-67
2021/08/26 06:08:06;;;;;;;5.43;1.20;;;;;;;16.93;100.00;100386.41;4988756;28;20066;-68
2021/08/26 06:10:32;;;;;;;8.88;1.15;;;;;;;16.81;100.00;100376.81;4984840;28;20042;-67
2021/08/26 06:12:57;;;;;;;4.57;1.90;;;;;;;16.85;100.00;100382.97;4985617;28;20073;-67
2021/08/26 06:15:22;;;;;;;6.70;1.17;;;;;;;16.87;100.00;100377.91;4988528;28;20109;-68
2021/08/26 06:17:48;;;;;;;6.38;1.23;;;;;;;16.92;100.00;100380.19;4983474;28;20050;-68
2021/08/26 06:20:14;;;;;;;9.55;1.30;;;;;;;16.92;100.00;100385.63;4983046;28;20038;-67
2021/08/26 06:22:41;;;;;;;7.25;1.58;;;;;;;16.91;100.00;100377.88;4991166;28;20121;-67
2021/08/26 06:25:07;;;;;;;7.00;1.27;;;;;;;16.96;100.00;100383.66;4990059;28;20413;-68
2021/08/26 06:27:33;;;;;;;2.67;1.30;;;;;;;17.06;100.00;100393.66;4993101;28;20348;-68
2021/08/26 06:29:59;;;;;;;4.43;1.15;;;;;;;17.05;100.00;100415.84;4990606;28;20475;-68
2021/08/26 06:32:25;;;;;;;6.57;1.20;;;;;;;17.05;100.00;100402.97;4987667;28;20048;-68
2021/08/26 06:34:51;;;;;;;5.18;1.40;;;;;;;16.96;100.00;100402.69;4984991;28;20038;-67
2021/08/26 06:37:16;;;;;;;5.65;1.45;;;;;;;16.94;100.00;100405.03;4988180;28;20026;-67
2021/08/26 06:39:42;;;;;;;5.32;1.33;;;;;;;16.91;100.00;100399.63;4983753;28;20034;-67
2021/08/26 06:42:08;;;;;;;10.77;1.80;;;;;;;16.89;100.00;100402.00;4988739;28;20030;-67
2021/08/26 06:44:33;;;;;;;4.50;0.95;;;;;;;16.89;100.00;100391.88;4987694;28;20552;-67
2021/08/26 06:46:59;;;;;;;5.28;1.20;;;;;;;16.94;100.00;100406.97;4977904;28;20118;-67
2021/08/26 06:49:25;;;;;;;5.22;1.70;;;;;;;16.92;100.00;100396.50;4991768;28;20622;-67
2021/08/26 06:51:50;;;;;;;5.10;1.45;;;;;;;16.91;100.00;100405.09;4987302;28;20063;-67
2021/08/26 06:54:16;;;;;;;7.15;1.20;;;;;;;16.84;100.00;100400.47;4975371;28;20042;-67
2021/08/26 06:56:41;;;;;;;3.50;1.00;;;;;;;16.88;100.00;100395.00;4979778;28;20057;-67
2021/08/26 06:59:07;;;;;;;5.22;0.80;;;;;;;16.89;100.00;100404.72;4986324;28;20023;-66
2021/08/26 07:01:33;;;;;;;3.25;1.02;;;;;;;16.91;100.00;100405.09;4981443;28;20034;-67
2021/08/26 07:03:59;;;;;;;5.53;0.98;;;;;;;17.01;100.00;100385.16;4990917;28;20813;-67
2021/08/26 07:06:25;;;;;;;5.00;1.00;;;;;;;17.15;100.00;100376.81;4992505;28;20022;-67
2021/08/26 07:08:52;;;;;;;2.72;1.15;;;;;;;17.41;100.00;100373.44;4993036;28;20085;-68
2021/08/26 07:11:17;;;;;;;3.45;1.15;;;;;;;17.50;100.00;100376.44;4988068;28;20038;-67
2021/08/26 07:13:42;;;;;;;3.92;1.38;;;;;;;17.67;100.00;100380.13;4990496;28;20033;-67
2021/08/26 07:16:08;;;;;;;2.88;1.08;;;;;;;17.75;100.00;100376.91;4991914;28;20120;-67
2021/08/26 07:18:34;;;;;;;6.10;0.80;;;;;;;17.76;100.00;100392.06;4986224;28;20038;-68
2021/08/26 07:20:59;;;;;;;3.45;1.17;;;;;;;17.75;100.00;100409.59;4985793;28;20590;-68
2021/08/26 07:23:24;;;;;;;3.90;1.20;;;;;;;17.77;100.00;100418.13;4986287;28;20034;-67
2021/08/26 07:25:50;;;;;;;1.63;1.13;;;;;;;17.78;100.00;100424.34;4992270;28;20034;-67
2021/08/26 07:28:15;;;;;;;3.72;0.88;;;;;;;17.77;100.00;100423.56;4990462;28;20515;-70
2021/08/26 07:30:41;;;;;;;2.92;1.08;;;;;;;17.81;100.00;100415.34;4981310;28;20121;-66
2021/08/26 07:33:06;;;;;;;5.05;1.10;;;;;;;17.85;100.00;100407.91;4986340;28;20534;-66
2021/08/26 07:35:32;;;;;;;3.40;1.00;;;;;;;17.91;100.00;100409.00;4983903;28;20061;-66
2021/08/26 07:37:58;;;;;;;1.95;0.82;;;;;;;17.95;100.00;100402.31;4988704;28;20053;-67
2021/08/26 07:40:24;;;;;;;3.30;1.55;;;;;;;18.18;100.00;100398.09;4985102;28;20474;-68
2021/08/26 07:42:49;;;;;;;6.05;1.20;;;;;;;18.39;100.00;100409.44;4988569;28;20034;-66
2021/08/26 07:45:15;;;;;;;3.80;1.13;;;;;;;18.67;100.00;100392.66;4990149;28;20483;-66
2021/08/26 07:47:41;;;;;;;6.43;1.05;;;;;;;18.89;100.00;100399.28;4985313;28;20018;-67
2021/08/26 07:50:08;;;;;;;2.40;0.75;;;;;;;19.15;100.00;100400.38;4986914;28;20054;-67
2021/08/26 07:52:33;;;;;;;3.47;0.75;;;;;;;19.16;98.39;100398.44;4986799;28;20499;-66
2021/08/26 07:54:59;;;;;;;1.10;0.60;;;;;;;19.27;97.80;100407.19;4990975;28;20041;-68
2021/08/26 07:57:25;;;;;;;6.53;0.75;;;;;;;19.22;97.83;100408.44;4991882;28;20034;-68
2021/08/26 07:59:51;;;;;;;1.60;0.60;;;;;;;19.31;96.97;100405.94;4982945;28;20066;-68
2021/08/26 08:02:17;;;;;;;2.28;0.68;;;;;;;19.55;96.90;100401.94;4984729;28;20050;-67
2021/08/26 08:04:43;;;;;;;1.90;0.70;;;;;;;19.70;95.48;100392.25;4984980;28;21430;-67
2021/08/26 08:07:09;;;;;;;2.55;0.65;;;;;;;19.86;94.37;100409.91;4986257;28;20058;-67
2021/08/26 08:09:34;;;;;;;4.63;0.50;;;;;;;19.98;93.05;100401.81;4983219;28;20062;-67
2021/08/26 08:12:00;;;;;;;3.63;0.75;;;;;;;20.03;92.54;100406.78;4989614;28;20048;-67
2021/08/26 08:14:28;;;;;;;3.30;0.60;;;;;;;20.11;91.59;100399.19;4983338;28;20049;-68
2021/08/26 08:16:55;;;;;;;1.92;0.55;;;;;;;20.19;92.04;100400.63;4984976;28;20105;-68
2021/08/26 08:19:21;;;;;;;1.88;0.82;;;;;;;20.25;90.32;100398.88;4987942;28;20041;-68
2021/08/26 08:21:47;;;;;;;2.90;0.40;;;;;;;20.20;88.59;100407.59;5029626;23;21294;-67
2021/08/26 08:24:12;;;;;;;1.42;0.32;;;;;;;20.22;86.93;100410.69;5040397;28;20065;-67
2021/08/26 08:26:38;;;;;;;3.83;0.52;;;;;;;20.16;86.44;100410.41;5039362;28;20571;-67
2021/08/26 08:29:04;;;;;;;1.08;0.40;;;;;;;20.17;86.21;100411.19;5043287;28;20061;-66
2021/08/26 08:31:29;;;;;;;2.38;0.40;;;;;;;20.09;86.38;100412.53;5026328;28;20037;-67
2021/08/26 08:33:55;;;;;;;0.65;0.28;;;;;;;20.09;85.40;100412.53;5016509;28;20041;-67
2021/08/26 08:36:20;;;;;;;1.52;0.20;;;;;;;19.99;83.95;100411.56;5042527;28;20110;-66
2021/08/26 08:38:46;;;;;;;3.60;0.32;;;;;;;19.98;84.80;100411.97;5036451;28;20382;-66
2021/08/26 08:41:15;;;;;;;1.23;0.40;;;;;;;20.09;83.28;100415.25;5045065;28;20111;-67
2021/08/26 08:43:41;;;;;;;2.65;0.50;;;;;;;20.33;83.12;100424.88;5042315;28;20493;-67
2021/08/26 08:46:08;;;;;;;1.30;0.30;;;;;;;20.63;83.54;100421.81;5047931;28;20045;-68
2021/08/26 08:48:38;;;;;;;0.20;0.20;;;;;;;20.94;82.50;100427.69;5042920;28;20115;-67
2021/08/26 08:51:05;;;;;;;2.08;0.30;;;;;;;20.94;78.95;100431.22;5038638;28;20037;-67
2021/08/26 08:53:31;;;;;;;3.22;0.30;;;;;;;20.96;79.89;100425.31;5042027;28;20041;-66
2021/08/26 08:55:57;;;;;;;1.90;0.45;;;;;;;21.10;80.30;100422.97;5036770;28;20033;-67
2021/08/26 08:58:22;;;;;;;1.15;0.60;;;;;;;21.23;77.16;100434.00;5041301;28;20029;-67
2021/08/26 09:00:48;;;;;;;0.95;0.22;;;;;;;21.27;77.80;100418.22;5038975;28;20037;-67
2021/08/26 09:03:13;;;;;;;2.17;0.40;;;;;;;21.39;77.04;100414.75;5032497;28;20666;-66
2021/08/26 09:05:57;;;;;;;0.60;0.22;;;;;;;21.61;77.95;100418.44;5024717;28;20045;-67
2021/08/26 09:08:24;;;;;;;0.35;0.30;;;;;;;21.77;76.07;100423.84;5041439;28;20029;-67
2021/08/26 09:11:07;;;;;;;1.80;0.38;;;;;;;21.83;75.78;100421.38;5033547;28;20452;-66
2021/08/26 09:13:34;;;;;;;0.30;0.20;;;;;;;21.87;74.55;100422.81;5037512;28;20116;-69
2021/08/26 09:16:01;;;;;;;1.52;0.20;;;;;;;21.92;74.76;100429.72;5038473;28;20044;-67
2021/08/26 09:18:27;;;;;;;0.85;0.20;;;;;;;22.05;73.63;100427.72;5034513;28;20037;-67
2021/08/26 09:20:54;;;;;;;1.20;0.30;;;;;;;22.20;71.08;100426.13;5045274;28;20037;-69
2021/08/26 09:23:22;;;;;;;1.88;0.35;;;;;;;22.35;72.40;100427.19;5041060;28;20067;-67
2021/08/26 09:25:48;;;;;;;0.50;0.22;;;;;;;22.46;71.25;100419.38;5040579;28;20079;-67
2021/08/26 09:28:33;;;;;;;0.43;0.30;;;;;;;22.64;67.15;100427.84;5043483;28;20036;-66
2021/08/26 09:31:09;;;;;;;1.00;0.28;;;;;;;22.72;67.89;100420.16;5039070;28;20037;-66
2021/08/26 09:34:04;;;;;;;1.20;0.28;;;;;;;22.89;70.64;100419.56;5028720;28;20119;-67
2021/08/26 09:36:35;;;;;;;8.65;0.95;;;;;;;23.03;68.04;100418.31;5039266;28;20410;-68
2021/08/26 09:39:04;;;;;;;0.45;0.28;;;;;;;23.17;69.27;100415.06;5048706;28;20033;-67
2021/08/26 09:42:03;;;;;;;2.15;0.20;;;;;;;23.34;67.07;100410.16;5048260;28;20493;-68
2021/08/26 09:44:34;;;;;;;1.40;0.30;;;;;;;23.52;66.52;100400.06;5011916;28;20123;-67
2021/08/26 09:47:03;;;;;;;1.67;0.40;;;;;;;23.56;66.72;100402.66;5033508;28;20634;-68
2021/08/26 09:49:32;;;;;;;2.45;0.50;;;;;;;23.58;64.85;100411.25;5038213;28;20045;-67
2021/08/26 09:52:14;;;;;;;2.55;0.50;;;;;;;23.32;64.60;100412.59;5036396;28;20036;-67
2021/08/26 09:54:42;;;;;;;2.30;0.68;;;;;;;22.88;63.09;100406.28;5015420;28;20045;-67
2021/08/26 09:57:21;;;;;;;1.45;0.20;;;;;;;22.54;66.42;100408.94;5028007;28;20079;-66
2021/08/26 09:59:55;;;;;;;1.23;0.28;;;;;;;22.21;69.18;100398.22;5040389;28;20060;-66
2021/08/26 10:02:23;;;;;;;1.10;0.22;;;;;;;21.95;67.69;100415.13;5034666;28;20382;-68
2021/08/26 10:04:49;;;;;;;0.82;0.10;;;;;;;21.75;68.91;100414.53;5038319;28;20036;-67
2021/08/26 10:07:18;;;;;;;1.60;0.40;;;;;;;21.55;68.16;100407.25;5043429;28;20025;-67
2021/08/26 10:09:46;;;;;;;0.65;0.30;;;;;;;21.38;69.24;100419.47;5041536;28;20037;-66
2021/08/26 10:12:16;;;;;;;0.30;0.30;;;;;;;21.24;70.65;100421.81;5021622;28;20033;-68
2021/08/26 10:14:46;;;;;;;1.38;0.25;;;;;;;21.20;69.32;100418.41;5040090;28;20500;-67
2021/08/26 10:17:13;;;;;;;0.85;0.20;;;;;;;21.09;68.90;100415.19;5040587;28;20089;-67
2021/08/26 10:19:40;;;;;;;1.55;0.52;;;;;;;21.03;71.28;100414.94;5044857;28;20040;-67
2021/08/26 10:22:07;;;;;;;2.10;0.35;;;;;;;21.01;70.16;100416.56;5043055;28;20083;-66
2021/08/26 10:24:33;;;;;;;4.30;0.60;;;;;;;20.95;72.13;100410.84;5023426;28;20562;-67
2021/08/26 10:27:27;;;;;;;1.38;0.25;;;;;;;21.12;72.50;100417.06;5037790;28;20037;-67
2021/08/26 10:29:53;;;;;;;1.85;0.25;;;;;;;21.42;73.76;100420.16;5044549;28;20045;-67
2021/08/26 10:32:24;;;;;;;0.30;0.10;;;;;;;21.67;71.47;100413.19;5048581;28;20029;-67
2021/08/26 10:35:07;;;;;;;0.82;0.32;;;;;;;21.77;69.08;100423.84;5046509;28;20112;-66
2021/08/26 10:37:53;;;;;;;0.10;0.00;;;;;;;21.73;64.92;100416.94;5050342;28;20135;-67
2021/08/26 10:40:51;;;;;;;0.25;0.10;;;;;;;21.56;64.50;100422.47;5035374;28;20127;-67
2021/08/26 10:43:34;;;;;;;0.80;0.20;;;;;;;21.42;67.58;100422.13;5004990;28;20114;-67
2021/08/26 10:46:00;;;;;;;0.93;0.20;;;;;;;21.29;67.47;100422.06;5042389;28;20139;-67
2021/08/26 10:48:27;;;;;;;0.95;0.10;;;;;;;21.42;67.12;100419.38;5021646;28;20036;-69
2021/08/26 10:51:04;;;;;;;0.52;0.10;;;;;;;21.86;64.60;100425.97;5044728;28;20060;-68
2021/08/26 10:53:32;;;;;;;2.30;0.20;;;;;;;22.31;63.34;100429.28;5040079;28;20088;-67
2021/08/26 10:56:25;;;;;;;0.10;0.10;;;;;;;22.54;62.57;100433.66;5039792;28;20037;-66
2021/08/26 10:58:55;;;;;;;0.10;0.00;;;;;;;22.59;57.31;100441.38;5036197;28;20025;-67
2021/08/26 11:01:38;;;;;;;1.55;0.00;;;;;;;22.29;55.44;100426.22;5017472;28;20033;-67
2021/08/26 11:04:17;;;;;;;1.25;0.30;;;;;;;22.10;56.84;100451.91;5034956;28;20037;-66
2021/08/26 11:06:44;;;;;;;0.75;0.20;;;;;;;21.86;58.29;100442.41;5019677;28;20103;-68
2021/08/26 11:09:12;;;;;;;0.60;0.10;;;;;;;21.64;58.66;100447.72;5044568;28;20391;-66
2021/08/26 11:11:47;;;;;;;1.75;0.20;;;;;;;21.43;58.22;100443.59;5035730;28;20041;-67
2021/08/26 11:14:12;;;;;;;0.63;0.10;;;;;;;21.34;58.68;100445.44;5038808;28;20045;-67
2021/08/26 11:16:41;;;;;;;0.50;0.17;;;;;;;21.42;58.83;100442.06;5055201;28;20029;-67
2021/08/26 11:19:12;;;;;;;0.38;0.10;;;;;;;21.76;59.11;100440.72;5050790;28;20392;-67
2021/08/26 11:21:44;;;;;;;0.15;0.10;;;;;;;22.17;58.21;100433.25;5054651;28;20059;-68
2021/08/26 11:24:12;;;;;;;0.65;0.20;;;;;;;22.48;58.11;100444.44;5044297;28;20033;-68
2021/08/26 11:26:54;;;;;;;0.90;0.10;;;;;;;22.48;55.59;100449.13;5049129;28;20120;-67